Details From KPIB - HATTIESBURG LAUREL RGNL
To KLCH - Lake Charles Rgnl
Flight Number -
Tags decoded
Created
Modified
Stats Distance 217 nm / 402 km
Max Altitude 0 ft / 0 m
Waypoints 4
Social Downloads 2
Likes 0
Share VATSIM

Download

Looking for another format? Having issues loading an existing format? Contact us
Advertisement - Login to hide

Notes

Requested: KPIB MCB LCH HEIGH KLCH

Route

KPIB MCB LCH KLCH

ID Type Via Altitude Latitude Longitude Leg Dist Tot Dist Heading (true) Name
O KPIB APT - 0 ft / 0 m 31.46715˚ -89.33706˚ - 0 nm - HATTIESBURG LAUREL RGNL
MCB VOR - 0 ft / 0 m 31.30444˚ -90.25819˚ 48 nm 48 nm 259° / 258° MC COMB VORTAC
LCH VOR - 0 ft / 0 m 30.14150˚ -93.10556˚ 162 nm 210 nm 245° / 244° LAKE CHARLES VORTAC
O KLCH APT - 0 ft / 0 m 30.12678˚ -93.22340˚ 6 nm 217 nm 262° / 262° Lake Charles Rgnl

Altitude Profile

Advertisement - Login to hide

Weather


0- 5 10 15 20 25 30 35+ Temperature / ° C

Clouds and Precipitation
Forecast for 2017-12-16 18:00 UTC. Updated 20 minutes ago

Ground ~20,000 ft ~40,000 ft Winds

KPIB

Details ICAO KPIB (PIB)
Name HATTIESBURG LAUREL RGNL
Region United States
Timezone America/Chicago (UTC-6.0)
Stats Elevation 297 ft / 91 m (AMSL)
Location 31.467146° -89.337058°
Runways 1
Magnetic Variation 1.474° W

METAR

KPIB 161456Z AUTO 00000KT 10SM FEW001 OVC110 02/00 A3034 RMK AO2 SLP276 T00220000 51017 FZRANO

Decode

TAF

Not found

Departure Runways

ID Width Length Bearing (true) Bearing (mag) Surface Threshold Offset Overrun Length
18 150 ft / 46 m 6,523 ft / 1,988 m 179.94° 181.41° Asphalt 0 ft / 0 m 200 ft / 61 m
36 150 ft / 46 m 6,523 ft / 1,988 m 359.94° 1.41° Asphalt 0 ft / 0 m 0 ft / 0 m

KLCH

Details ICAO KLCH (LCH)
Name Lake Charles Rgnl
Region United States
Timezone America/Chicago (UTC-6.0)
Stats Elevation 15 ft / 5 m (AMSL)
Location 30.126783° -93.223397°
Runways 2
Magnetic Variation 1.162° E

METAR

KLCH 161453Z 08008KT 10SM FEW080 OVC100 09/02 A3026 RMK AO2 SLP254 T00940022 51005

Decode

TAF

KLCH 161123Z 1612/1712 VRB05KT P6SM OVC080 FM161500 09007KT P6SM BKN060 FM162100 09008KT P6SM OVC040 FM170100 12011G20KT P6SM -RA OVC025 TEMPO 1703/1707 5SM -RA OVC015

Decode

Destination Runways

ID Width Length Bearing (true) Bearing (mag) Surface Threshold Offset Overrun Length
05 98 ft / 30 m 5,201 ft / 1,585 m 51.76° 50.60° Asphalt 0 ft / 0 m 0 ft / 0 m
15 151 ft / 46 m 6,515 ft / 1,986 m 154.80° 153.64° Concrete 0 ft / 0 m 0 ft / 0 m
23 98 ft / 30 m 5,201 ft / 1,585 m 231.77° 230.61° Asphalt 0 ft / 0 m 0 ft / 0 m
33 151 ft / 46 m 6,515 ft / 1,986 m 334.81° 333.65° Concrete 0 ft / 0 m 0 ft / 0 m

Approach Navaids

Runway Type Ident Frequency Range Bearing (true) Bearing (mag) Slope Elevation
15 Localiser ILCH 109.10 MHz 18 nm / 33 km 154.81° 153.65° - 15 ft / 5 m (AMSL)
15 Glidescope ILCH 109.10 MHz 10 nm / 19 km 154.80° 153.64° 3.00° 12 ft / 4 m (AMSL)
15 DME ILCH 109.10 MHz 18 nm / 33 km - - - 15 ft / 5 m (AMSL)